Gleason, Wisconsin
Current Conditions -  °F | °C
As of 11:15 PM on Monday 20 Oct 2014 (Local Time) from KRRL Reporting Station
Overcast Overcast  
Wind Chill: 40°   Ceiling: 3000
Heat Index: 44°   Visibility: 7mi
Dew Point: 41°   Wind: 8mph
Humidity: 90%   Direction: 20°NNE
Pressure: 30.07"   Gusts: NA
Location:  45.31°N, 89.5°W
Report Text: KRRL 210415Z AUTO 02007KT 7SM SCT016 SCT024 OVC030 07/05 A3007 RMK AO2 T00670052
Loading
Personal Weather Stations






























Interactive Weather Map
Tropical Storm Tracking
New forecast layout! Learn more

10-Day Weather Forecast

Advertisements
Track Severe Weather on mobile